createdAt,value
2018-08-04T00:01:20.288Z,21.90
2018-08-04T00:03:48.650Z,21.80
2018-08-04T00:06:17.049Z,21.80
2018-08-04T00:08:45.424Z,21.70
2018-08-04T00:11:13.814Z,21.70
2018-08-04T00:13:42.186Z,21.70
2018-08-04T00:16:10.580Z,21.70
2018-08-04T00:18:38.975Z,21.60
2018-08-04T00:21:07.350Z,21.60
2018-08-04T00:23:35.735Z,21.60
2018-08-04T00:26:04.140Z,21.60
2018-08-04T00:28:32.764Z,21.60
2018-08-04T00:31:01.118Z,21.60
2018-08-04T00:33:29.520Z,21.60
2018-08-04T00:35:57.930Z,21.60
2018-08-04T00:38:26.272Z,21.60
2018-08-04T00:40:54.683Z,21.60
2018-08-04T00:43:23.062Z,21.50
2018-08-04T00:45:51.482Z,21.40
2018-08-04T00:48:19.902Z,21.40
2018-08-04T00:50:48.262Z,21.30
2018-08-04T00:53:16.622Z,21.30
2018-08-04T00:55:44.986Z,21.20
2018-08-04T00:58:13.360Z,21.20
2018-08-04T01:00:43.456Z,21.20
2018-08-04T01:03:11.826Z,21.20
2018-08-04T01:05:40.998Z,21.10
2018-08-04T01:08:12.904Z,21.10
2018-08-04T01:10:41.298Z,21.10
2018-08-04T01:13:09.642Z,21.10
2018-08-04T01:15:38.024Z,21.10
2018-08-04T01:18:06.398Z,21.10
2018-08-04T01:20:34.745Z,21.10
2018-08-04T01:23:03.082Z,21.10
2018-08-04T01:25:31.441Z,21.00
2018-08-04T01:27:59.870Z,21.00
2018-08-04T01:30:28.294Z,21.10
2018-08-04T01:32:56.672Z,21.10
2018-08-04T01:35:25.056Z,21.10
2018-08-04T01:37:53.406Z,21.10
2018-08-04T01:40:21.812Z,21.20
2018-08-04T01:42:50.206Z,21.20
2018-08-04T01:45:18.592Z,21.20
2018-08-04T01:47:46.970Z,21.20
2018-08-04T01:50:15.355Z,21.10
2018-08-04T01:52:45.762Z,21.10
2018-08-04T01:55:14.138Z,21.00
2018-08-04T01:57:42.540Z,21.00
2018-08-04T02:00:10.898Z,20.90
2018-08-04T02:02:39.380Z,20.80
2018-08-04T02:05:07.854Z,20.90
2018-08-04T02:07:36.212Z,20.90
2018-08-04T02:10:05.684Z,20.90
2018-08-04T02:12:34.063Z,20.90
2018-08-04T02:15:02.472Z,21.00
2018-08-04T02:17:30.820Z,21.00
2018-08-04T02:19:59.196Z,20.90
2018-08-04T02:22:27.598Z,20.90
2018-08-04T02:24:55.956Z,20.90
2018-08-04T02:27:24.395Z,21.00
2018-08-04T02:29:52.793Z,21.00
2018-08-04T02:32:21.200Z,20.90
2018-08-04T02:34:49.561Z,20.90
2018-08-04T02:37:17.911Z,20.90
2018-08-04T02:39:46.327Z,20.90
2018-08-04T02:42:14.734Z,20.80
2018-08-04T02:44:43.711Z,20.80
2018-08-04T02:47:12.082Z,20.70
2018-08-04T02:49:40.462Z,20.80
2018-08-04T02:52:08.829Z,20.80
2018-08-04T02:54:37.216Z,20.70
2018-08-04T02:57:05.624Z,20.70
2018-08-04T02:59:34.008Z,20.60
2018-08-04T03:02:02.379Z,20.60
2018-08-04T03:04:30.793Z,20.50
2018-08-04T03:06:59.201Z,20.60
2018-08-04T03:09:27.605Z,20.50
2018-08-04T03:14:24.068Z,20.40
2018-08-04T03:16:52.459Z,20.40
2018-08-04T03:19:21.973Z,20.40
2018-08-04T03:21:50.323Z,20.40
2018-08-04T03:24:18.671Z,20.40
2018-08-04T03:26:47.069Z,20.40
2018-08-04T03:29:15.410Z,20.40
2018-08-04T03:31:43.744Z,20.40
2018-08-04T03:34:12.113Z,20.30
2018-08-04T03:36:40.521Z,20.30
2018-08-04T03:39:10.605Z,20.20
2018-08-04T03:44:07.503Z,20.10
2018-08-04T03:46:36.253Z,20.10
2018-08-04T03:49:04.705Z,20.10
2018-08-04T03:51:33.079Z,20.00
2018-08-04T03:54:01.465Z,20.00
2018-08-04T03:56:29.937Z,20.00
2018-08-04T04:03:55.435Z,20.00
2018-08-04T04:06:23.777Z,20.00
2018-08-04T04:08:52.131Z,20.00
2018-08-04T04:11:20.483Z,19.90
2018-08-04T04:16:17.003Z,19.90
2018-08-04T04:18:45.385Z,19.90
2018-08-04T04:21:13.759Z,19.90
2018-08-04T04:23:42.155Z,19.80
2018-08-04T04:26:10.541Z,19.90
2018-08-04T04:28:38.889Z,19.90
2018-08-04T04:31:07.254Z,19.90
2018-08-04T04:33:35.691Z,19.90
2018-08-04T04:36:04.064Z,19.80
2018-08-04T04:38:33.690Z,19.80
2018-08-04T04:41:02.036Z,19.80
2018-08-04T04:43:30.479Z,19.80
2018-08-04T04:45:58.833Z,19.70
2018-08-04T04:48:27.252Z,19.70
2018-08-04T04:50:55.905Z,19.60
2018-08-04T04:53:24.271Z,19.60
2018-08-04T04:55:52.721Z,19.60
2018-08-04T04:58:21.129Z,19.60
2018-08-04T05:00:49.532Z,19.60
2018-08-04T05:03:17.996Z,19.60
2018-08-04T05:05:46.340Z,19.60
2018-08-04T05:08:15.686Z,19.70
2018-08-04T05:13:12.111Z,19.70
2018-08-04T05:15:40.480Z,19.70
2018-08-04T05:18:08.894Z,19.60
2018-08-04T05:20:37.272Z,19.60
2018-08-04T05:23:05.785Z,19.60
2018-08-04T05:25:34.222Z,19.60
2018-08-04T05:28:02.564Z,19.70
2018-08-04T05:30:30.945Z,19.80
2018-08-04T05:32:59.332Z,19.80
2018-08-04T05:35:27.704Z,19.80
2018-08-04T05:37:56.098Z,19.80
2018-08-04T05:40:24.466Z,19.90
2018-08-04T05:42:52.833Z,20.00
2018-08-04T05:45:21.210Z,20.00
2018-08-04T05:47:49.564Z,20.10
2018-08-04T05:50:17.940Z,20.10
2018-08-04T05:52:46.342Z,20.10
2018-08-04T05:55:14.720Z,20.20
2018-08-04T05:57:43.122Z,20.20
2018-08-04T06:00:11.458Z,20.30
2018-08-04T06:02:39.860Z,20.40
2018-08-04T06:05:08.756Z,20.30
2018-08-04T06:07:37.254Z,20.40
2018-08-04T06:10:05.696Z,20.50
2018-08-04T06:12:34.192Z,20.60
2018-08-04T06:17:30.686Z,20.80
2018-08-04T06:19:59.014Z,21.00
2018-08-04T06:24:55.512Z,21.10
2018-08-04T06:27:23.897Z,21.20
2018-08-04T06:29:52.306Z,21.30
2018-08-04T06:32:20.686Z,21.50
2018-08-04T06:34:49.062Z,21.60
2018-08-04T06:37:17.503Z,21.70
2018-08-04T06:39:45.988Z,21.80
2018-08-04T06:42:14.432Z,22.00
2018-08-04T06:44:42.872Z,22.20
2018-08-04T06:47:11.228Z,22.30
2018-08-04T06:49:39.574Z,22.50
2018-08-04T06:52:08.033Z,22.60
2018-08-04T06:54:36.460Z,22.70
2018-08-04T06:57:04.865Z,22.80
2018-08-04T06:59:33.230Z,22.80
2018-08-04T07:02:01.631Z,22.90
2018-08-04T07:04:30.097Z,23.00
2018-08-04T07:06:58.477Z,23.10
2018-08-04T07:09:26.854Z,23.30
2018-08-04T07:11:55.217Z,23.50
2018-08-04T07:14:23.588Z,23.60
2018-08-04T07:16:51.974Z,23.70
2018-08-04T07:19:20.334Z,23.80
2018-08-04T07:21:48.702Z,23.90
2018-08-04T07:24:17.112Z,24.00
2018-08-04T07:26:46.298Z,24.10
2018-08-04T07:29:14.668Z,24.20
2018-08-04T07:31:43.080Z,24.20
2018-08-04T07:34:11.508Z,24.30
2018-08-04T07:36:39.909Z,24.50
2018-08-04T07:39:09.420Z,24.60
2018-08-04T07:41:37.910Z,24.60
2018-08-04T07:44:06.678Z,24.60
2018-08-04T07:46:35.380Z,24.80
2018-08-04T07:49:03.751Z,24.80
2018-08-04T07:51:32.355Z,25.00
2018-08-04T07:54:00.790Z,25.20
2018-08-04T07:56:29.150Z,25.20
2018-08-04T07:58:57.700Z,25.30
2018-08-04T08:01:26.135Z,25.40
2018-08-04T08:03:54.605Z,25.60
2018-08-04T08:06:23.015Z,25.80
2018-08-04T08:08:51.454Z,25.70
2018-08-04T08:11:19.848Z,25.80
2018-08-04T08:13:49.301Z,26.00
2018-08-04T08:16:17.675Z,26.00
2018-08-04T08:18:46.060Z,26.10
2018-08-04T08:21:14.511Z,26.20
2018-08-04T08:23:42.994Z,26.40
2018-08-04T08:26:12.957Z,26.60
2018-08-04T08:28:42.157Z,26.60
2018-08-04T08:31:10.667Z,26.50
2018-08-04T08:33:39.900Z,26.60
2018-08-04T08:36:08.791Z,26.60
2018-08-04T08:38:37.220Z,26.80
2018-08-04T08:41:05.812Z,26.80
2018-08-04T08:43:34.225Z,26.80
2018-08-04T08:46:02.599Z,26.90
2018-08-04T08:48:32.006Z,27.00
2018-08-04T08:51:00.319Z,27.10
2018-08-04T08:53:28.872Z,27.30
2018-08-04T08:55:57.070Z,27.30
2018-08-04T08:58:25.435Z,27.40
2018-08-04T09:00:53.862Z,27.50
2018-08-04T09:05:50.354Z,27.70
2018-08-04T09:08:18.762Z,27.70
2018-08-04T09:10:47.447Z,27.60
2018-08-04T09:13:15.867Z,27.70
2018-08-04T09:15:44.372Z,27.60
2018-08-04T09:18:12.827Z,27.60
2018-08-04T09:23:09.372Z,27.60
2018-08-04T09:25:37.773Z,27.30
2018-08-04T09:28:06.230Z,27.50
2018-08-04T09:30:34.686Z,27.70
2018-08-04T09:33:03.148Z,27.90
2018-08-04T09:35:31.615Z,28.00
2018-08-04T09:38:01.044Z,28.00
2018-08-04T09:40:29.374Z,28.10
2018-08-04T09:42:57.825Z,28.00
2018-08-04T09:45:26.272Z,27.80
2018-08-04T09:47:54.721Z,28.00
2018-08-04T09:50:23.100Z,28.10
2018-08-04T09:52:51.469Z,27.70
2018-08-04T09:55:20.008Z,27.90
2018-08-04T09:57:48.372Z,27.90
2018-08-04T10:00:22.038Z,27.90
2018-08-04T10:02:50.387Z,28.00
2018-08-04T10:05:18.824Z,28.00
2018-08-04T10:07:47.175Z,28.20
2018-08-04T10:10:15.565Z,28.30
2018-08-04T10:12:43.971Z,28.30
2018-08-04T10:15:16.249Z,28.30
2018-08-04T10:17:44.685Z,28.30
2018-08-04T10:20:13.075Z,28.20
2018-08-04T10:22:41.455Z,28.30
2018-08-04T10:25:09.835Z,28.30
2018-08-04T10:27:38.226Z,28.50
2018-08-04T10:30:09.471Z,28.70
2018-08-04T10:32:37.843Z,28.80
2018-08-04T10:35:06.625Z,28.60
2018-08-04T10:37:34.999Z,28.30
2018-08-04T10:40:03.406Z,28.50
2018-08-04T10:42:31.877Z,28.60
2018-08-04T10:45:00.370Z,28.40
2018-08-04T10:49:56.817Z,28.50
2018-08-04T10:52:25.181Z,28.50
2018-08-04T10:54:53.550Z,28.60
2018-08-04T10:57:22.075Z,28.60
2018-08-04T10:59:50.425Z,28.70
2018-08-04T11:02:18.839Z,28.70
2018-08-04T11:04:47.310Z,28.70
2018-08-04T11:07:15.652Z,28.80
2018-08-04T11:09:44.072Z,29.20
2018-08-04T11:12:12.448Z,29.20
2018-08-04T11:14:40.804Z,29.30
2018-08-04T11:17:09.230Z,29.30
2018-08-04T11:19:37.609Z,29.40
2018-08-04T11:22:06.048Z,29.30
2018-08-04T11:24:34.466Z,29.30
2018-08-04T11:27:02.845Z,29.10
2018-08-04T11:29:31.291Z,29.10
2018-08-04T11:31:59.690Z,29.20
2018-08-04T11:34:28.082Z,29.20
2018-08-04T11:36:56.455Z,29.20
2018-08-04T11:39:24.826Z,29.20
2018-08-04T11:41:53.245Z,29.50
2018-08-04T11:44:21.653Z,29.30
2018-08-04T11:46:50.105Z,29.40
2018-08-04T11:49:18.496Z,29.50
2018-08-04T11:51:46.959Z,29.30
2018-08-04T11:54:15.357Z,29.50
2018-08-04T11:56:43.741Z,29.30
2018-08-04T11:59:12.191Z,29.40
2018-08-04T12:01:40.599Z,29.70
2018-08-04T12:04:08.941Z,29.60
2018-08-04T12:06:37.300Z,29.90
2018-08-04T12:09:08.749Z,30.00
2018-08-04T12:11:37.129Z,30.10
2018-08-04T12:14:05.579Z,29.90
2018-08-04T12:16:33.921Z,29.70
2018-08-04T12:19:02.433Z,29.90
2018-08-04T12:21:30.789Z,30.10
2018-08-04T12:26:27.297Z,30.30
2018-08-04T12:28:55.687Z,30.30
2018-08-04T12:31:24.141Z,29.90
2018-08-04T12:33:52.580Z,29.90
2018-08-04T12:36:20.951Z,30.30
2018-08-04T12:38:49.345Z,30.30
2018-08-04T12:41:17.747Z,30.00
2018-08-04T12:43:46.165Z,30.00
2018-08-04T12:46:14.593Z,29.80
2018-08-04T12:48:42.989Z,29.80
2018-08-04T12:51:13.377Z,29.90
2018-08-04T12:53:41.757Z,30.00
2018-08-04T12:56:10.093Z,30.20
2018-08-04T12:58:38.512Z,30.30
2018-08-04T13:01:06.975Z,30.30
2018-08-04T13:03:35.361Z,30.70
2018-08-04T13:06:03.779Z,30.30
2018-08-04T13:11:00.227Z,30.60
2018-08-04T13:15:56.673Z,30.50
2018-08-04T13:18:25.031Z,30.30
2018-08-04T13:20:53.418Z,30.50
2018-08-04T13:23:21.777Z,30.90
2018-08-04T13:25:50.157Z,31.00
2018-08-04T13:28:18.537Z,31.00
2018-08-04T13:30:47.153Z,30.40
2018-08-04T13:33:15.512Z,30.20
2018-08-04T13:35:43.863Z,30.10
2018-08-04T13:38:12.191Z,30.40
2018-08-04T13:40:40.545Z,30.60
2018-08-04T13:43:08.889Z,30.70
2018-08-04T13:45:37.255Z,30.80
2018-08-04T13:48:05.627Z,30.50
2018-08-04T13:53:05.227Z,30.20
2018-08-04T13:55:33.607Z,30.40
2018-08-04T13:58:02.013Z,30.30
2018-08-04T14:00:31.213Z,30.40
2018-08-04T14:03:00.080Z,30.10
2018-08-04T14:05:28.547Z,29.90
2018-08-04T14:07:57.060Z,30.10
2018-08-04T14:10:25.568Z,30.00
2018-08-04T14:12:53.967Z,30.40
2018-08-04T14:15:22.337Z,30.40
2018-08-04T14:17:50.688Z,30.40
2018-08-04T14:20:19.046Z,30.50
2018-08-04T14:22:47.499Z,30.20
2018-08-04T14:25:15.835Z,29.90
2018-08-04T14:27:44.197Z,29.90
2018-08-04T14:30:12.563Z,29.70
2018-08-04T14:32:40.935Z,29.90
2018-08-04T14:35:09.297Z,30.10
2018-08-04T14:37:37.661Z,30.00
2018-08-04T14:40:06.069Z,30.30
2018-08-04T14:42:34.473Z,30.40
2018-08-04T14:45:02.855Z,30.50
2018-08-04T14:47:31.253Z,30.40
2018-08-04T14:49:59.668Z,30.90
2018-08-04T14:52:28.114Z,30.90
2018-08-04T14:59:52.655Z,30.40
2018-08-04T15:02:21.035Z,30.50
2018-08-04T15:04:50.442Z,30.80
2018-08-04T15:07:18.819Z,30.50
2018-08-04T15:09:47.201Z,30.40
2018-08-04T15:12:15.585Z,30.70
2018-08-04T15:14:44.010Z,30.70
2018-08-04T15:17:12.405Z,30.70
2018-08-04T15:19:40.787Z,30.50
2018-08-04T15:22:09.177Z,30.10
2018-08-04T15:24:37.562Z,29.80
2018-08-04T15:29:34.223Z,29.60
2018-08-04T15:32:03.291Z,29.40
2018-08-04T15:34:32.450Z,29.50
2018-08-04T15:37:01.559Z,29.20
2018-08-04T15:39:29.969Z,29.10
2018-08-04T15:41:59.709Z,29.20
2018-08-04T15:44:28.087Z,29.10
2018-08-04T15:46:56.523Z,28.90
2018-08-04T15:49:24.987Z,28.60
2018-08-04T15:51:53.477Z,28.60
2018-08-04T15:54:22.007Z,28.40
2018-08-04T15:56:50.416Z,28.30
2018-08-04T15:59:18.993Z,28.30
2018-08-04T16:01:47.508Z,28.10
2018-08-04T16:04:15.889Z,28.20
2018-08-04T16:06:44.281Z,28.10
2018-08-04T16:09:12.725Z,27.90
2018-08-04T16:11:41.799Z,28.10
2018-08-04T16:14:10.540Z,27.80
2018-08-04T16:16:39.686Z,27.80
2018-08-04T16:19:08.129Z,27.80
2018-08-04T16:21:36.637Z,27.90
2018-08-04T16:24:05.085Z,28.00
2018-08-04T16:26:33.496Z,27.80
2018-08-04T16:29:01.926Z,27.90
2018-08-04T16:31:30.398Z,27.70
2018-08-04T16:33:58.768Z,27.60
2018-08-04T16:36:27.213Z,27.60
2018-08-04T16:38:55.591Z,27.50
2018-08-04T16:41:23.946Z,27.60
2018-08-04T16:43:52.381Z,27.30
2018-08-04T16:46:20.834Z,27.30
2018-08-04T16:48:49.235Z,27.30
2018-08-04T16:51:17.641Z,27.30
2018-08-04T16:53:47.076Z,27.20
2018-08-04T16:56:15.517Z,27.30
2018-08-04T16:58:43.915Z,27.10
2018-08-04T17:01:12.363Z,27.00
2018-08-04T17:03:40.764Z,26.80
2018-08-04T17:06:09.143Z,26.50
2018-08-04T17:08:37.517Z,26.40
2018-08-04T17:11:05.947Z,26.30
2018-08-04T17:13:34.385Z,26.10
2018-08-04T17:16:02.767Z,26.10
2018-08-04T17:18:31.140Z,26.10
2018-08-04T17:20:59.509Z,25.80
2018-08-04T17:23:28.077Z,25.60
2018-08-04T17:25:56.425Z,25.60
2018-08-04T17:28:24.897Z,25.60
2018-08-04T17:30:53.391Z,25.50
2018-08-04T17:33:21.849Z,25.40
2018-08-04T17:35:54.105Z,25.40
2018-08-04T17:38:22.565Z,25.40
2018-08-04T17:40:50.964Z,25.60
2018-08-04T17:43:19.337Z,25.30
2018-08-04T17:45:47.704Z,25.20
2018-08-04T17:48:16.054Z,25.30
2018-08-04T17:50:47.823Z,25.10
2018-08-04T17:53:16.260Z,25.00
2018-08-04T17:55:44.665Z,24.80
2018-08-04T17:58:13.080Z,24.80
2018-08-04T18:00:41.470Z,24.80
2018-08-04T18:03:09.829Z,24.80
2018-08-04T18:05:38.250Z,24.90
2018-08-04T18:08:06.702Z,24.80
2018-08-04T18:10:35.115Z,24.60
2018-08-04T18:13:03.549Z,24.40
2018-08-04T18:15:32.038Z,24.30
2018-08-04T18:18:00.543Z,24.30
2018-08-04T18:20:28.965Z,24.30
2018-08-04T18:22:57.490Z,24.20
2018-08-04T18:25:25.862Z,24.10
2018-08-04T18:27:54.236Z,24.00
2018-08-04T18:30:23.099Z,23.90
2018-08-04T18:32:51.499Z,23.90
2018-08-04T18:35:20.027Z,23.80
2018-08-04T18:37:48.476Z,23.80
2018-08-04T18:40:16.888Z,23.70
2018-08-04T18:42:45.322Z,23.60
2018-08-04T18:45:13.816Z,23.50
2018-08-04T18:47:42.260Z,23.30
2018-08-04T18:50:10.711Z,23.40
2018-08-04T18:52:39.156Z,23.30
2018-08-04T18:55:07.622Z,23.30
2018-08-04T18:57:36.524Z,23.20
2018-08-04T19:00:06.154Z,23.20
2018-08-04T19:02:34.593Z,23.10
2018-08-04T19:05:03.066Z,23.10
2018-08-04T19:07:31.435Z,23.10
2018-08-04T19:09:59.977Z,23.00
2018-08-04T19:12:28.417Z,23.00
2018-08-04T19:14:56.867Z,22.90
2018-08-04T19:17:25.303Z,22.90
2018-08-04T19:19:53.693Z,22.80
2018-08-04T19:22:22.575Z,22.70
2018-08-04T19:25:06.287Z,22.70
2018-08-04T19:27:36.885Z,22.60
2018-08-04T19:30:12.344Z,22.50
2018-08-04T19:35:33.879Z,22.50
2018-08-04T19:38:05.814Z,22.40
2018-08-04T19:40:34.242Z,22.40
2018-08-04T19:43:02.667Z,22.30
2018-08-04T19:45:31.097Z,22.30
2018-08-04T19:48:01.690Z,22.30
2018-08-04T19:50:30.069Z,22.20
2018-08-04T19:52:58.473Z,22.20
2018-08-04T19:55:27.079Z,22.10
2018-08-04T19:57:55.478Z,22.20
2018-08-04T20:00:23.878Z,22.10
2018-08-04T20:02:52.251Z,22.10
2018-08-04T20:05:20.609Z,22.00
2018-08-04T20:07:49.039Z,21.90
2018-08-04T20:10:17.453Z,21.90
2018-08-04T20:12:45.831Z,21.80
2018-08-04T20:15:14.277Z,21.80
2018-08-04T20:17:42.661Z,21.80
2018-08-04T20:20:11.093Z,21.70
2018-08-04T20:22:39.600Z,21.60
2018-08-04T20:25:07.993Z,21.60
2018-08-04T20:27:36.409Z,21.50
2018-08-04T20:30:04.921Z,21.40
2018-08-04T20:35:01.432Z,21.30
2018-08-04T20:37:29.743Z,21.30
2018-08-04T20:39:58.110Z,21.20
2018-08-04T20:42:26.478Z,21.20
2018-08-04T20:44:54.878Z,21.10
2018-08-04T20:47:23.269Z,21.00
2018-08-04T20:49:51.685Z,20.90
2018-08-04T20:52:20.080Z,20.90
2018-08-04T20:54:48.551Z,20.90
2018-08-04T20:57:17.019Z,20.80
2018-08-04T20:59:45.379Z,20.80
2018-08-04T21:02:13.762Z,20.80
2018-08-04T21:04:42.194Z,20.70
2018-08-04T21:07:11.013Z,20.50
2018-08-04T21:09:40.430Z,20.40
2018-08-04T21:14:36.913Z,20.30
2018-08-04T21:17:05.314Z,20.30
2018-08-04T21:19:33.716Z,20.30
2018-08-04T21:22:02.369Z,20.30
2018-08-04T21:24:30.950Z,20.20
2018-08-04T21:26:59.380Z,20.20
2018-08-04T21:29:27.813Z,20.10
2018-08-04T21:31:56.246Z,20.00
2018-08-04T21:34:24.666Z,20.00
2018-08-04T21:36:53.060Z,19.90
2018-08-04T21:39:21.434Z,19.90
2018-08-04T21:41:49.826Z,19.70
2018-08-04T21:44:18.330Z,19.70
2018-08-04T21:46:48.323Z,19.60
2018-08-04T21:49:16.812Z,19.70
2018-08-04T21:51:46.486Z,19.50
2018-08-04T21:54:19.921Z,19.50
2018-08-04T21:56:46.121Z,19.50
2018-08-04T21:59:14.511Z,19.50
2018-08-04T22:01:48.420Z,19.40
2018-08-04T22:04:16.772Z,19.30
2018-08-04T22:09:22.037Z,19.30
2018-08-04T22:11:50.437Z,19.30
2018-08-04T22:14:18.916Z,19.20
2018-08-04T22:16:47.835Z,19.20
2018-08-04T22:19:16.229Z,19.20
2018-08-04T22:21:44.538Z,19.20
2018-08-04T22:24:12.979Z,19.10
2018-08-04T22:26:41.330Z,19.10
2018-08-04T22:29:09.692Z,18.90
2018-08-04T22:31:38.184Z,18.90
2018-08-04T22:34:06.549Z,18.90
2018-08-04T22:36:34.961Z,18.90
2018-08-04T22:39:03.906Z,18.90
2018-08-04T22:41:32.276Z,18.90
2018-08-04T22:44:00.712Z,18.80
2018-08-04T22:46:29.082Z,18.90
2018-08-04T22:48:57.446Z,18.90
2018-08-04T22:51:28.032Z,18.90
2018-08-04T22:53:56.647Z,18.70
2018-08-04T22:56:25.233Z,18.80
2018-08-04T22:58:53.606Z,18.60
2018-08-04T23:01:22.074Z,18.70
2018-08-04T23:03:50.465Z,18.60
2018-08-04T23:06:18.862Z,18.60
2018-08-04T23:08:47.240Z,18.60
2018-08-04T23:11:15.594Z,18.70
2018-08-04T23:13:44.012Z,18.80
2018-08-04T23:16:12.428Z,18.80
2018-08-04T23:18:40.808Z,18.70
2018-08-04T23:21:09.154Z,18.60
2018-08-04T23:23:37.572Z,18.60
2018-08-04T23:26:06.216Z,18.60
2018-08-04T23:28:34.589Z,18.60
2018-08-04T23:31:02.933Z,18.60
2018-08-04T23:33:31.339Z,18.60
2018-08-04T23:35:59.704Z,18.50
2018-08-04T23:38:28.226Z,18.60
2018-08-04T23:40:59.571Z,18.60
2018-08-04T23:43:27.948Z,18.60
2018-08-04T23:45:56.340Z,18.60
2018-08-04T23:50:52.874Z,18.60
2018-08-04T23:53:21.266Z,18.60
2018-08-04T23:55:49.676Z,18.60
2018-08-04T23:58:18.048Z,18.50
